createdAt,value
2023-02-25T00:02:21.488Z,7.64
2023-02-25T00:04:49.828Z,7.40
2023-02-25T00:07:18.332Z,7.57
2023-02-25T00:09:46.928Z,7.40
2023-02-25T00:12:15.450Z,7.67
2023-02-25T00:14:43.737Z,7.36
2023-02-25T00:17:13.950Z,7.41
2023-02-25T00:19:42.969Z,7.55
2023-02-25T00:22:11.362Z,7.42
2023-02-25T00:24:40.148Z,7.45
2023-02-25T00:27:08.568Z,7.14
2023-02-25T00:29:36.899Z,7.29
2023-02-25T00:32:07.512Z,7.27
2023-02-25T00:34:40.857Z,7.01
2023-02-25T00:37:11.811Z,7.14
2023-02-25T00:39:43.387Z,7.28
2023-02-25T00:42:13.444Z,7.20
2023-02-25T00:44:46.390Z,7.05
2023-02-25T00:47:15.392Z,7.54
2023-02-25T00:49:49.104Z,7.27
2023-02-25T00:52:20.724Z,7.54
2023-02-25T00:54:49.273Z,7.09
2023-02-25T00:57:18.126Z,7.19
2023-02-25T00:59:48.599Z,7.17
2023-02-25T01:02:17.124Z,7.19
2023-02-25T01:04:45.574Z,7.12
2023-02-25T01:07:16.478Z,7.02
2023-02-25T01:09:44.979Z,6.89
2023-02-25T01:12:13.485Z,6.69
2023-02-25T01:14:41.873Z,6.91
2023-02-25T01:17:11.066Z,7.25
2023-02-25T01:19:40.208Z,6.64
2023-02-25T01:22:09.147Z,6.92
2023-02-25T01:24:39.194Z,7.12
2023-02-25T01:27:09.133Z,6.92
2023-02-25T01:29:41.572Z,6.88
2023-02-25T01:32:14.465Z,7.21
2023-02-25T01:34:43.100Z,7.06
2023-02-25T01:37:12.153Z,6.93
2023-02-25T01:39:42.078Z,7.21
2023-02-25T01:42:15.514Z,6.78
2023-02-25T01:45:17.511Z,7.06
2023-02-25T01:47:50.100Z,7.08
2023-02-25T01:50:19.651Z,7.02
2023-02-25T01:52:48.669Z,7.33
2023-02-25T01:55:19.629Z,7.40
2023-02-25T01:57:50.787Z,7.43
2023-02-25T02:00:20.002Z,7.53
2023-02-25T02:02:52.569Z,7.34
2023-02-25T02:05:22.133Z,7.24
2023-02-25T02:07:51.069Z,7.13
2023-02-25T02:10:20.959Z,6.92
2023-02-25T02:12:49.594Z,7.06
2023-02-25T02:15:17.907Z,7.33
2023-02-25T02:17:50.360Z,6.90
2023-02-25T02:20:25.399Z,7.12
2023-02-25T02:23:22.129Z,7.16
2023-02-25T02:26:26.408Z,7.13
2023-02-25T02:29:24.690Z,7.38
2023-02-25T02:32:03.787Z,6.94
2023-02-25T02:34:41.408Z,6.73
2023-02-25T02:37:27.384Z,6.58
2023-02-25T02:40:09.969Z,6.61
2023-02-25T02:42:45.188Z,6.98
2023-02-25T02:45:19.105Z,7.01
2023-02-25T02:47:53.158Z,7.05
2023-02-25T02:50:28.489Z,6.86
2023-02-25T02:53:01.436Z,7.01
2023-02-25T02:55:35.748Z,6.87
2023-02-25T02:58:11.697Z,6.99
2023-02-25T03:01:01.054Z,6.86
2023-02-25T03:03:37.178Z,7.06
2023-02-25T03:06:09.075Z,6.61
2023-02-25T03:08:44.713Z,7.04
2023-02-25T03:11:13.857Z,6.57
2023-02-25T03:13:42.629Z,6.72
2023-02-25T03:16:15.301Z,6.66
2023-02-25T03:18:50.217Z,6.92
2023-02-25T03:21:22.749Z,6.67
2023-02-25T03:23:52.468Z,6.37
2023-02-25T03:26:27.747Z,6.16
2023-02-25T03:29:02.048Z,6.19
2023-02-25T03:31:37.518Z,6.40
2023-02-25T03:34:11.204Z,5.99
2023-02-25T03:36:43.095Z,6.70
2023-02-25T03:39:16.834Z,6.14
2023-02-25T03:41:49.990Z,6.31
2023-02-25T03:44:22.662Z,5.82
2023-02-25T03:46:53.579Z,6.07
2023-02-25T03:49:30.333Z,6.48
2023-02-25T03:52:02.962Z,6.13
2023-02-25T03:54:31.428Z,6.31
2023-02-25T03:57:03.271Z,6.29
2023-02-25T03:59:31.671Z,6.16
2023-02-25T04:02:02.073Z,5.99
2023-02-25T04:04:31.924Z,6.29
2023-02-25T04:07:00.285Z,6.08
2023-02-25T04:09:28.677Z,6.07
2023-02-25T04:11:57.276Z,6.37
2023-02-25T04:14:26.314Z,6.14
2023-02-25T04:16:54.751Z,6.29
2023-02-25T04:19:23.755Z,6.31
2023-02-25T04:21:55.984Z,6.17
2023-02-25T04:24:24.415Z,6.66
2023-02-25T04:26:58.254Z,6.44
2023-02-25T04:29:27.052Z,6.77
2023-02-25T04:31:55.522Z,6.72
2023-02-25T04:34:24.098Z,6.60
2023-02-25T04:36:53.086Z,6.69
2023-02-25T04:39:22.858Z,6.53
2023-02-25T04:41:51.266Z,6.83
2023-02-25T04:44:19.519Z,6.84
2023-02-25T04:46:51.630Z,6.50
2023-02-25T04:49:21.703Z,6.36
2023-02-25T04:51:52.695Z,6.64
2023-02-25T04:54:23.062Z,6.48
2023-02-25T04:56:51.363Z,6.69
2023-02-25T04:59:19.643Z,6.57
2023-02-25T05:01:50.039Z,6.60
2023-02-25T05:04:18.374Z,6.47
2023-02-25T05:06:46.700Z,6.72
2023-02-25T05:09:14.955Z,6.54
2023-02-25T05:11:44.608Z,6.44
2023-02-25T05:14:12.875Z,6.71
2023-02-25T05:16:41.323Z,6.36
2023-02-25T05:19:09.735Z,6.55
2023-02-25T05:21:38.041Z,6.40
2023-02-25T05:24:07.270Z,6.53
2023-02-25T05:26:35.580Z,6.40
2023-02-25T05:29:05.513Z,6.77
2023-02-25T05:31:34.753Z,6.42
2023-02-25T05:34:03.686Z,7.13
2023-02-25T05:36:32.070Z,6.96
2023-02-25T05:39:02.604Z,7.11
2023-02-25T05:41:31.530Z,6.76
2023-02-25T05:43:59.887Z,7.38
2023-02-25T05:46:29.932Z,6.35
2023-02-25T05:48:58.231Z,6.96
2023-02-25T05:51:26.555Z,7.07
2023-02-25T05:53:54.933Z,6.68
2023-02-25T05:56:26.177Z,7.14
2023-02-25T05:58:55.338Z,6.49
2023-02-25T06:01:27.636Z,6.46
2023-02-25T06:03:58.526Z,6.87
2023-02-25T06:06:28.542Z,6.66
2023-02-25T06:08:57.212Z,6.29
2023-02-25T06:11:27.981Z,6.43
2023-02-25T06:13:58.200Z,6.63
2023-02-25T06:16:32.640Z,6.27
2023-02-25T06:19:02.970Z,6.48
2023-02-25T06:21:31.780Z,6.67
2023-02-25T06:24:00.316Z,6.33
2023-02-25T06:26:28.781Z,6.59
2023-02-25T06:28:58.058Z,6.24
2023-02-25T06:31:26.407Z,6.25
2023-02-25T06:33:55.925Z,6.09
2023-02-25T06:36:25.987Z,6.81
2023-02-25T06:38:54.833Z,6.40
2023-02-25T06:41:23.849Z,6.34
2023-02-25T06:43:52.898Z,6.45
2023-02-25T06:46:24.822Z,6.28
2023-02-25T06:48:53.854Z,6.34
2023-02-25T06:51:23.053Z,6.08
2023-02-25T06:53:53.075Z,6.67
2023-02-25T06:56:22.351Z,6.73
2023-02-25T06:58:52.573Z,6.48
2023-02-25T07:01:21.336Z,6.68
2023-02-25T07:03:49.758Z,6.28
2023-02-25T07:06:18.416Z,6.43
2023-02-25T07:08:47.067Z,6.69
2023-02-25T07:11:29.552Z,6.61
2023-02-25T07:13:58.481Z,6.54
2023-02-25T07:16:29.766Z,6.77
2023-02-25T07:19:01.735Z,6.80
2023-02-25T07:21:30.941Z,6.94
2023-02-25T07:23:59.461Z,6.54
2023-02-25T07:26:29.328Z,6.92
2023-02-25T07:28:58.359Z,6.53
2023-02-25T07:31:28.508Z,7.03
2023-02-25T07:34:00.007Z,7.13
2023-02-25T07:36:30.684Z,7.51
2023-02-25T07:38:59.042Z,7.17
2023-02-25T07:41:29.649Z,7.30
2023-02-25T07:44:03.435Z,7.31
2023-02-25T07:46:32.240Z,6.85
2023-02-25T07:49:00.802Z,7.01
2023-02-25T07:51:29.287Z,6.90
2023-02-25T07:54:00.592Z,7.50
2023-02-25T07:56:31.809Z,7.13
2023-02-25T07:59:01.298Z,7.16
2023-02-25T08:01:33.115Z,6.73
2023-02-25T08:04:04.615Z,7.73
2023-02-25T08:06:35.817Z,6.97
2023-02-25T08:09:05.697Z,6.90
2023-02-25T08:11:35.539Z,6.81
2023-02-25T08:14:04.911Z,7.05
2023-02-25T08:16:35.879Z,6.79
2023-02-25T08:19:05.690Z,7.22
2023-02-25T08:21:34.553Z,7.76
2023-02-25T08:24:02.942Z,7.61
2023-02-25T08:26:31.340Z,6.89
2023-02-25T08:29:01.044Z,6.84
2023-02-25T08:31:29.730Z,7.37
2023-02-25T08:33:59.380Z,7.09
2023-02-25T08:36:30.473Z,7.24
2023-02-25T08:39:00.009Z,7.05
2023-02-25T08:41:32.031Z,7.33
2023-02-25T08:44:02.243Z,7.43
2023-02-25T08:46:33.767Z,7.15
2023-02-25T08:49:02.493Z,7.05
2023-02-25T08:51:34.949Z,6.82
2023-02-25T08:54:05.527Z,7.30
2023-02-25T08:56:35.127Z,7.47
2023-02-25T08:59:06.095Z,7.60
2023-02-25T09:01:45.678Z,7.30
2023-02-25T09:04:15.651Z,7.38
2023-02-25T09:06:47.311Z,7.93
2023-02-25T09:09:16.357Z,7.99
2023-02-25T09:11:45.534Z,7.89
2023-02-25T09:14:16.342Z,7.65
2023-02-25T09:16:45.249Z,7.86
2023-02-25T09:19:15.791Z,8.18
2023-02-25T09:21:44.855Z,8.14
2023-02-25T09:24:13.291Z,7.96
2023-02-25T09:26:41.828Z,7.45
2023-02-25T09:29:10.534Z,7.92
2023-02-25T09:31:40.415Z,7.97
2023-02-25T09:34:11.181Z,8.08
2023-02-25T09:36:39.597Z,8.21
2023-02-25T09:39:10.137Z,8.39
2023-02-25T09:41:46.043Z,8.16
2023-02-25T09:44:17.809Z,7.53
2023-02-25T09:46:52.554Z,8.25
2023-02-25T09:49:29.740Z,8.24
2023-02-25T09:52:04.200Z,8.56
2023-02-25T09:54:39.510Z,8.08
2023-02-25T09:57:08.690Z,8.31
2023-02-25T09:59:36.995Z,8.28
2023-02-25T10:02:25.181Z,8.09
2023-02-25T10:05:07.857Z,7.76
2023-02-25T10:07:42.485Z,7.55
2023-02-25T10:10:20.985Z,7.91
2023-02-25T10:12:57.885Z,7.62
2023-02-25T10:15:37.338Z,7.88
2023-02-25T10:18:20.616Z,7.91
2023-02-25T10:21:03.341Z,8.04
2023-02-25T10:23:43.989Z,8.43
2023-02-25T10:26:18.965Z,8.61
2023-02-25T10:28:51.631Z,9.13
2023-02-25T10:31:21.687Z,8.94
2023-02-25T10:33:54.098Z,8.51
2023-02-25T10:36:28.075Z,8.49
2023-02-25T10:38:56.444Z,8.56
2023-02-25T10:41:26.728Z,8.49
2023-02-25T10:43:56.757Z,8.74
2023-02-25T10:46:34.049Z,8.72
2023-02-25T10:49:16.621Z,8.35
2023-02-25T10:52:03.124Z,8.32
2023-02-25T10:54:33.291Z,8.27
2023-02-25T10:57:08.368Z,7.71
2023-02-25T10:59:39.337Z,8.88
2023-02-25T11:02:23.446Z,8.81
2023-02-25T11:04:54.696Z,8.36
2023-02-25T11:07:35.543Z,8.79
2023-02-25T11:10:10.258Z,8.26
2023-02-25T11:12:43.648Z,9.04
2023-02-25T11:15:43.473Z,8.47
2023-02-25T11:18:23.143Z,7.94
2023-02-25T11:20:57.039Z,8.37
2023-02-25T11:23:36.915Z,8.08
2023-02-25T11:26:07.768Z,8.23
2023-02-25T11:28:41.323Z,8.08
2023-02-25T11:31:13.648Z,8.08
2023-02-25T11:33:45.407Z,7.93
2023-02-25T11:36:23.497Z,7.74
2023-02-25T11:39:06.997Z,7.91
2023-02-25T11:41:35.281Z,7.53
2023-02-25T11:44:20.315Z,7.71
2023-02-25T11:46:57.687Z,7.94
2023-02-25T11:49:35.707Z,7.37
2023-02-25T11:52:14.319Z,7.86
2023-02-25T11:54:51.947Z,7.76
2023-02-25T11:57:29.226Z,8.11
2023-02-25T12:00:14.689Z,7.29
2023-02-25T12:02:52.318Z,7.39
2023-02-25T12:05:53.146Z,6.98
2023-02-25T12:08:40.172Z,6.66
2023-02-25T12:11:46.025Z,6.47
2023-02-25T12:14:56.615Z,6.15
2023-02-25T12:17:53.791Z,6.13
2023-02-25T12:21:00.650Z,6.59
2023-02-25T12:24:10.852Z,6.61
2023-02-25T12:27:03.037Z,6.82
2023-02-25T12:29:52.723Z,6.11
2023-02-25T12:32:53.723Z,6.28
2023-02-25T12:35:52.867Z,5.93
2023-02-25T12:38:47.962Z,6.86
2023-02-25T12:41:28.438Z,6.95
2023-02-25T12:44:06.785Z,6.99
2023-02-25T12:46:59.066Z,6.70
2023-02-25T12:49:46.474Z,7.02
2023-02-25T12:52:35.468Z,6.86
2023-02-25T12:55:36.088Z,7.14
2023-02-25T12:58:33.573Z,7.83
2023-02-25T13:01:17.948Z,7.68
2023-02-25T13:04:11.921Z,7.59
2023-02-25T13:07:01.250Z,8.44
2023-02-25T13:10:01.894Z,7.23
2023-02-25T13:12:47.502Z,7.89
2023-02-25T13:15:21.780Z,7.96
2023-02-25T13:18:05.833Z,7.87
2023-02-25T13:20:54.897Z,8.42
2023-02-25T13:23:58.043Z,8.13
2023-02-25T13:26:39.871Z,8.06
2023-02-25T13:29:25.737Z,8.52
2023-02-25T13:32:10.221Z,8.51
2023-02-25T13:34:46.255Z,8.73
2023-02-25T13:37:37.893Z,8.50
2023-02-25T13:40:21.498Z,8.74
2023-02-25T13:43:20.149Z,9.13
2023-02-25T13:45:58.501Z,8.06
2023-02-25T13:48:44.354Z,8.15
2023-02-25T13:51:34.451Z,8.49
2023-02-25T13:54:21.507Z,8.74
2023-02-25T13:56:57.953Z,8.83
2023-02-25T13:59:47.676Z,9.95
2023-02-25T14:02:45.135Z,10.00
2023-02-25T14:05:31.563Z,9.59
2023-02-25T14:08:17.360Z,8.63
2023-02-25T14:10:54.330Z,8.81
2023-02-25T14:13:59.460Z,8.54
2023-02-25T14:16:55.528Z,8.13
2023-02-25T14:19:35.618Z,7.91
2023-02-25T14:22:25.593Z,8.51
2023-02-25T14:25:03.463Z,7.92
2023-02-25T14:27:40.371Z,7.98
2023-02-25T14:30:26.685Z,8.02
2023-02-25T14:33:21.860Z,8.29
2023-02-25T14:36:08.959Z,7.96
2023-02-25T14:38:55.303Z,8.03
2023-02-25T14:41:35.155Z,8.82
2023-02-25T14:44:12.677Z,8.75
2023-02-25T14:46:46.699Z,8.97
2023-02-25T14:49:21.803Z,8.45
2023-02-25T14:52:07.202Z,8.48
2023-02-25T14:55:06.033Z,8.36
2023-02-25T14:58:06.116Z,8.80
2023-02-25T15:01:06.740Z,8.56
2023-02-25T15:04:05.088Z,8.46
2023-02-25T15:06:53.352Z,9.02
2023-02-25T15:10:02.689Z,9.27
2023-02-25T15:12:59.370Z,8.71
2023-02-25T15:15:40.477Z,8.25
2023-02-25T15:18:46.665Z,8.14
2023-02-25T15:21:37.150Z,8.27
2023-02-25T15:24:11.543Z,8.08
2023-02-25T15:26:45.869Z,7.99
2023-02-25T15:29:57.922Z,8.11
2023-02-25T15:32:29.971Z,6.38
2023-02-25T15:35:01.108Z,6.32
2023-02-25T15:37:33.325Z,5.63
2023-02-25T15:40:24.318Z,5.57
2023-02-25T15:42:54.912Z,5.86
2023-02-25T15:45:39.073Z,6.14
2023-02-25T15:48:42.004Z,5.91
2023-02-25T15:51:14.526Z,6.19
2023-02-25T15:53:48.245Z,6.41
2023-02-25T15:56:58.928Z,6.62
2023-02-25T15:59:45.174Z,6.96
2023-02-25T16:02:41.828Z,6.47
2023-02-25T16:05:20.499Z,6.52
2023-02-25T16:07:51.875Z,6.36
2023-02-25T16:10:26.487Z,6.64
2023-02-25T16:12:58.358Z,5.94
2023-02-25T16:15:32.354Z,6.82
2023-02-25T16:18:15.116Z,6.17
2023-02-25T16:20:46.522Z,6.31
2023-02-25T16:23:16.768Z,6.32
2023-02-25T16:25:54.883Z,6.27
2023-02-25T16:28:34.392Z,6.45
2023-02-25T16:31:15.665Z,6.28
2023-02-25T16:33:53.157Z,6.10
2023-02-25T16:36:32.252Z,6.00
2023-02-25T16:39:04.667Z,5.78
2023-02-25T16:41:38.589Z,6.19
2023-02-25T16:44:07.995Z,6.37
2023-02-25T16:46:39.168Z,6.00
2023-02-25T16:49:19.071Z,6.17
2023-02-25T16:51:48.672Z,6.00
2023-02-25T16:54:22.417Z,6.47
2023-02-25T16:56:56.534Z,6.47
2023-02-25T16:59:25.256Z,6.48
2023-02-25T17:01:58.495Z,6.03
2023-02-25T17:04:32.489Z,6.34
2023-02-25T17:07:12.210Z,6.21
2023-02-25T17:09:48.538Z,6.32
2023-02-25T17:12:20.961Z,6.52
2023-02-25T17:14:51.839Z,6.52
2023-02-25T17:17:26.017Z,6.50
2023-02-25T17:19:57.592Z,6.14
2023-02-25T17:22:27.424Z,6.40
2023-02-25T17:24:59.284Z,4.71
2023-02-25T17:27:28.545Z,3.74
2023-02-25T17:29:56.680Z,3.53
2023-02-25T17:32:26.988Z,3.32
2023-02-25T17:34:58.718Z,3.09
2023-02-25T17:37:28.370Z,3.61
2023-02-25T17:39:57.122Z,3.23
2023-02-25T17:42:30.015Z,3.39
2023-02-25T17:44:58.598Z,3.22
2023-02-25T17:47:28.178Z,3.13
2023-02-25T17:49:59.038Z,3.57
2023-02-25T17:52:29.764Z,3.70
2023-02-25T17:55:00.035Z,3.61
2023-02-25T17:57:29.366Z,3.65
2023-02-25T18:00:04.203Z,3.61
2023-02-25T18:02:41.285Z,3.38
2023-02-25T18:05:30.290Z,3.61
2023-02-25T18:08:19.432Z,3.64
2023-02-25T18:10:51.091Z,3.75
2023-02-25T18:13:21.573Z,3.66
2023-02-25T18:16:09.696Z,4.10
2023-02-25T18:18:37.735Z,3.75
2023-02-25T18:21:07.404Z,3.66
2023-02-25T18:23:35.549Z,4.12
2023-02-25T18:26:17.352Z,3.87
2023-02-25T18:28:46.121Z,3.96
2023-02-25T18:31:16.905Z,3.86
2023-02-25T18:33:46.182Z,4.17
2023-02-25T18:36:20.615Z,3.76
2023-02-25T18:38:49.538Z,3.67
2023-02-25T18:41:19.109Z,3.76
2023-02-25T18:43:47.191Z,3.65
2023-02-25T18:46:15.726Z,4.69
2023-02-25T18:48:44.229Z,3.87
2023-02-25T18:51:14.911Z,4.26
2023-02-25T18:53:43.654Z,4.05
2023-02-25T18:56:16.221Z,4.19
2023-02-25T18:58:45.713Z,4.01
2023-02-25T19:01:20.239Z,3.94
2023-02-25T19:03:48.742Z,4.43
2023-02-25T19:06:17.116Z,4.49
2023-02-25T19:08:45.448Z,3.91
2023-02-25T19:11:19.064Z,4.55
2023-02-25T19:13:49.245Z,3.80
2023-02-25T19:16:19.251Z,4.11
2023-02-25T19:18:48.543Z,4.12
2023-02-25T19:21:19.055Z,3.56
2023-02-25T19:23:51.636Z,3.88
2023-02-25T19:26:21.110Z,4.14
2023-02-25T19:28:51.602Z,3.54
2023-02-25T19:31:30.200Z,3.94
2023-02-25T19:33:58.909Z,3.55
2023-02-25T19:36:27.536Z,4.22
2023-02-25T19:38:56.439Z,3.95
2023-02-25T19:41:25.170Z,4.04
2023-02-25T19:43:54.825Z,3.51
2023-02-25T19:46:23.868Z,3.85
2023-02-25T19:48:52.576Z,3.76
2023-02-25T19:51:21.061Z,3.91
2023-02-25T19:53:51.849Z,3.68
2023-02-25T19:56:22.079Z,4.07
2023-02-25T19:58:50.877Z,3.66
2023-02-25T20:01:21.241Z,3.28
2023-02-25T20:03:51.109Z,3.79
2023-02-25T20:06:23.368Z,3.32
2023-02-25T20:08:53.716Z,3.84
2023-02-25T20:11:25.305Z,3.80
2023-02-25T20:13:53.810Z,3.71
2023-02-25T20:16:25.360Z,4.14
2023-02-25T20:18:56.274Z,3.29
2023-02-25T20:21:27.345Z,4.04
2023-02-25T20:23:58.595Z,3.72
2023-02-25T20:26:29.112Z,3.37
2023-02-25T20:28:57.929Z,3.98
2023-02-25T20:31:28.092Z,3.32
2023-02-25T20:33:58.288Z,3.37
2023-02-25T20:36:29.638Z,3.10
2023-02-25T20:39:18.577Z,3.19
2023-02-25T20:41:47.942Z,3.20
2023-02-25T20:44:16.807Z,2.84
2023-02-25T20:46:47.279Z,3.20
2023-02-25T20:49:18.858Z,3.18
2023-02-25T20:51:50.231Z,2.93
2023-02-25T20:54:20.054Z,3.23
2023-02-25T20:56:49.460Z,2.85
2023-02-25T20:59:19.318Z,2.74
2023-02-25T21:01:49.122Z,2.87
2023-02-25T21:04:17.272Z,2.70
2023-02-25T21:06:47.565Z,2.80
2023-02-25T21:09:15.904Z,2.93
2023-02-25T21:11:45.181Z,2.74
2023-02-25T21:14:16.607Z,3.19
2023-02-25T21:16:45.032Z,2.68
2023-02-25T21:19:14.613Z,2.82
2023-02-25T21:21:42.667Z,3.49
2023-02-25T21:24:12.436Z,3.01
2023-02-25T21:26:40.405Z,3.17
2023-02-25T21:29:08.775Z,2.65
2023-02-25T21:31:37.655Z,2.79
2023-02-25T21:34:06.606Z,3.07
2023-02-25T21:36:36.283Z,3.19
2023-02-25T21:39:04.678Z,2.52
2023-02-25T21:41:32.865Z,2.54
2023-02-25T21:44:01.063Z,2.50
2023-02-25T21:46:29.442Z,2.69
2023-02-25T21:48:57.505Z,2.37
2023-02-25T21:51:26.534Z,2.72
2023-02-25T21:53:57.039Z,2.26
2023-02-25T21:56:25.739Z,2.55
2023-02-25T21:58:55.521Z,2.74
2023-02-25T22:02:37.785Z,2.27
2023-02-25T22:05:07.059Z,2.58
2023-02-25T22:07:37.864Z,2.49
2023-02-25T22:10:08.868Z,2.14
2023-02-25T22:12:36.953Z,2.24
2023-02-25T22:15:05.798Z,2.83
2023-02-25T22:17:34.118Z,2.18
2023-02-25T22:20:04.259Z,2.24
2023-02-25T22:22:32.618Z,2.05
2023-02-25T22:25:04.636Z,2.32
2023-02-25T22:27:33.144Z,2.16
2023-02-25T22:30:01.210Z,2.02
2023-02-25T22:32:29.336Z,2.56
2023-02-25T22:34:57.388Z,2.03
2023-02-25T22:37:29.151Z,2.18
2023-02-25T22:39:57.252Z,1.96
2023-02-25T22:42:25.342Z,1.99
2023-02-25T22:44:53.750Z,2.32
2023-02-25T22:47:21.764Z,1.78
2023-02-25T22:49:49.757Z,1.80
2023-02-25T22:52:17.804Z,2.02
2023-02-25T22:54:47.228Z,1.92
2023-02-25T22:57:15.290Z,1.95
2023-02-25T22:59:43.297Z,1.85
2023-02-25T23:02:11.365Z,2.05
2023-02-25T23:04:39.416Z,1.82
2023-02-25T23:07:07.448Z,2.32
2023-02-25T23:09:35.526Z,1.73
2023-02-25T23:12:05.639Z,1.63
2023-02-25T23:14:35.813Z,2.35
2023-02-25T23:17:04.518Z,2.02
2023-02-25T23:19:32.936Z,2.08
2023-02-25T23:22:00.994Z,1.52
2023-02-25T23:24:29.035Z,1.80
2023-02-25T23:27:01.274Z,1.69
2023-02-25T23:29:30.720Z,1.66
2023-02-25T23:31:58.911Z,1.96
2023-02-25T23:34:27.016Z,2.07
2023-02-25T23:36:56.384Z,1.55
2023-02-25T23:39:24.995Z,1.81
2023-02-25T23:41:53.052Z,1.71
2023-02-25T23:44:21.131Z,1.75
2023-02-25T23:46:50.537Z,1.94
2023-02-25T23:49:18.748Z,1.67
2023-02-25T23:51:48.320Z,1.64
2023-02-25T23:54:17.321Z,1.59
2023-02-25T23:56:45.382Z,1.65
2023-02-25T23:59:13.524Z,1.66
